Huvudsida
METAR-TAF:

METAR-TAF

Flygplatser :

Amman Civil Airport

Amman, Jordanien

latitud: 31-59N, longitud: 035-59E, höjd: 767 m

Aktuellt väderrapport

Denna rapport gjordes för 47 minuter sedan, klockan 19:00 UTC
Vind 3 kt från ost
Temperatur 18°C
Fuktighet 24%
Tryck 1019 hPa
Sikt: 5000 m
torrdis

METAR: OJAM 111900Z 08003KT 5000 HZ NSC 18/M03 Q1019 NOSIG

Tid: 21:47 (19:47 UTC)

Väderprognos

Denna rapport gjordes för 2 timmar och 57 minuter sedan, klockan 16:50 UTC
Prognos gäller från 11 kl. 18 UTC till 12 kl. 24 UTC
Vind 2 kt varierande vindriktning
Sikt: 6000 m
Temporärt
från 12 kl. 03 UTC till 12 kl. 05 UTC
Sikt: 3000 m
rök
Blir
från 12 kl. 05 UTC till 12 kl. 07 UTC
Vind 12 kt från ost
Sikt: 5000 m
Få moln på en höjd av 4000 ft
torrdis
Sannolikhet 30%
från 12 kl. 12 UTC till 12 kl. 16 UTC
Vind 14 kt från ost/sydost
Sikt: 3000 m
utbrett stoft

TAF: OJAM 111650Z 1118/1224 VRB02KT 6000 NSC TEMPO 1203/1205 3000 FU BECMG 1205/1207 09012KT 5000 HZ FEW040 PROB30 1212/1216 12014KT 3000 DU

Aktuella väderrapporter och prognoser från 4000 flygplatser (METAR- och TAF-rapporter).

De tillgängliga stationerna syns som gula och röda prickar på kartan.

För musen över prickarna för att se namnen på stationerna.

Klicka sedan för att få väderrapporter och prognoser.

För att ändra kartan: Klicka på de gröna knapparna med ett svart kors på för att zooma in; den gröna knappen med ett streck på för att zooma ut; eller på de gröna pilarna för angränsande kartor.


METAR-TAF: